Flight Track Log - Related Links

Times and Time Zones

All times are in EDT time to prevent confusion due to time zone crossing. See the C-GDBS flight status page for this flight to view local times or setup timezone preferences in your user account.


Time Position Orientation Groundspeed Altitude Reporting Facility
EDT Latitude Longitude Course Direction KTS MPH feet Rate Location/Type
Fri 08:48:20 PM 42.2519 -82.1325 196° South 141 162 2,500  Level Cleveland Center
Fri 08:49:22 PM 42.2714 -82.0833 62° Northeast 166 191 3,000 581 Climbing Cleveland Center
Fri 08:50:24 PM 42.3017 -82.0269 54° Northeast 176 203 3,700 488 Climbing Cleveland Center
Fri 08:51:25 PM 42.3408 -81.9631 50° Northeast 186 214 4,000 488 Climbing Cleveland Center
Fri 08:52:27 PM 42.3769 -81.9028 51° Northeast 200 230 4,700 484 Climbing Cleveland Center
Fri 08:53:29 PM 42.4122 -81.8461 50° Northeast 197 227 5,000 194 Climbing Cleveland Center
Fri 08:54:31 PM 42.4478 -81.7869 51° Northeast 199 229 5,100  Climbing Cleveland Center
Fri 08:55:33 PM 42.4822 -81.7236 54° Northeast 204 235 5,000  Descending Cleveland Center
Fri 08:56:35 PM 42.5186 -81.6619 51° Northeast 207 238 5,100 49 Climbing Cleveland Center
Fri 08:57:36 PM 42.5542 -81.5997 52° Northeast 207 238 5,100 -49 Level Cleveland Center
Fri 08:58:38 PM 42.5914 -81.5414 49° Northeast 206 237 5,000 -48 Descending Cleveland Center
Fri 08:59:40 PM 42.6333 -81.4697 51° Northeast 205 236 5,000  Level Cleveland Center
Fri 09:00:41 PM 42.6800 -81.4253 35° Northeast 205 236 5,000  Level Cleveland Center
Fri 09:01:43 PM 42.7222 -81.3772 40° Northeast 199 229 5,000 48 Level Cleveland Center
Fri 09:02:45 PM 42.7442 -81.3078 67° East 195 224 5,100 48 Climbing Cleveland Center
Fri 09:03:47 PM 42.7606 -81.2328 73° East 199 229 5,100 -98 Level Cleveland Center
Fri 09:04:48 PM 42.7789 -81.1567 72° East 204 235 4,900 31 Descending Cleveland Center
Fri 09:07:00 PM 42.7833 -80.9667 88° East 200 230 5,200 31 Climbing Toronto Center
Fri 09:08:00 PM 42.7833 -80.9000 90° East 190 219 5,000 -100 Descending Toronto Center
Fri 09:09:00 PM 42.8167 -80.8667 36° Northeast 200 230 5,000  Level Toronto Center
Fri 09:10:00 PM 42.8667 -80.8000 44° Northeast 200 230 5,000 -50 Level Toronto Center
Fri 09:11:00 PM 42.9000 -80.7333 56° Northeast 200 230 4,900 -50 Descending Toronto Center
Fri 09:12:00 PM 42.9333 -80.6500 61° Northeast 190 219 4,900 50 Level Toronto Center
Fri 09:13:00 PM 42.9500 -80.5833 71° East 190 219 5,000 50 Climbing Toronto Center
Fri 09:14:00 PM 42.9833 -80.5500 36° Northeast 190 219 5,000  Level Toronto Center
Fri 09:15:00 PM 43.0000 -80.4833 71° East 190 219 5,000 50 Level Toronto Center
Fri 09:16:00 PM 43.0333 -80.4167 56° Northeast 190 219 5,100 50 Climbing Toronto Center
Fri 09:17:00 PM 43.0500 -80.3333 75° East 190 219 5,100  Level Toronto Center
Fri 09:18:00 PM 43.0833 -80.3000 36° Northeast 190 219 5,100 -50 Level Toronto Center
Fri 09:19:00 PM 43.1000 -80.2333 71° East 190 219 5,000  Descending Toronto Center
Fri 09:20:00 PM 43.1333 -80.1667 56° Northeast 180 207 5,100 50 Climbing Toronto Center
Fri 09:21:00 PM 43.1500 -80.1167 65° Northeast 190 219 5,100 -50 Level Toronto Center
Fri 09:22:00 PM 43.1833 -80.0167 65° Northeast 200 230 5,000 -50 Descending Toronto Center
Fri 09:23:00 PM 43.2000 -79.9833 56° Northeast 200 230 5,000  Level Toronto Center
Fri 09:24:00 PM 43.2333 -79.8833 65° Northeast 200 230 5,000 50 Level Toronto Center
Fri 09:25:00 PM 43.2500 -79.8333 65° Northeast 200 230 5,100 50 Climbing Toronto Center
Fri 09:26:00 PM 43.2833 -79.7667 56° Northeast 200 230 5,100 -100 Level Toronto Center
Fri 09:27:00 PM 43.3167 -79.7000 55° Northeast 200 230 4,900 -100 Descending Toronto Center
Fri 09:28:00 PM 43.3500 -79.6333 55° Northeast 200 230 4,900  Level Toronto Center
Fri 09:29:00 PM 43.3667 -79.5667 71° East 200 230 4,900 50 Level Toronto Center
Fri 09:30:00 PM 43.4000 -79.5000 55° Northeast 200 230 5,000 50 Climbing Toronto Center
Fri 09:31:00 PM 43.4333 -79.4500 47° Northeast 200 230 5,000 -50 Level Toronto Center
Fri 09:32:00 PM 43.4667 -79.3833 55° Northeast 200 230 4,900  Descending Toronto Center
Fri 09:33:00 PM 43.5000 -79.3167 55° Northeast 200 230 5,000 100 Climbing Toronto Center
Fri 09:34:00 PM 43.5500 -79.2667 36° Northeast 200 230 5,100  Climbing Toronto Center
Fri 09:35:00 PM 43.5833 -79.2167 47° Northeast 200 230 5,000 -50 Descending Toronto Center
Fri 09:36:00 PM 43.6167 -79.1500 55° Northeast 200 230 5,000 -200 Level Toronto Center
Fri 09:37:00 PM 43.6667 -79.1000 36° Northeast 200 230 4,600 -550 Descending Toronto Center
Fri 09:38:00 PM 43.7167 -79.0500 36° Northeast 200 230 3,900 -750 Descending Toronto Center
Fri 09:39:00 PM 43.7500 -79.0167 36° Northeast 200 230 3,100 -450 Descending Toronto Center
Fri 09:40:00 PM 43.8000 -79.0500 334° Northwest 190 219 3,000 -50 Descending Toronto Center
Fri 09:41:00 PM 43.8333 -79.0833 324° Northwest 160 184 3,000  Level Toronto Center
Fri 09:42:00 PM 43.8500 -79.1167 305° West 160 184 3,000 50 Level Toronto Center
Fri 09:43:00 PM 43.8500 -79.1667 270° West 130 150 3,100 -350 Climbing Toronto Center
Fri 09:44:00 PM 43.8500 -79.2333 270° West 140 161 2,300 -750 Descending Toronto Center
Fri 09:45:00 PM 43.8667 -79.2833 295° West 160 184 1,600 -450 Descending Toronto Center
Fri 09:46:00 PM 43.8667 -79.3333 270° West 130 150 1,400 -350 Descending Toronto Center
Fri 09:47:00 PM 43.8500 -79.3833 245° Southwest 110 127 900 -500 Descending Toronto Center

Login

Don't have an account? Register now (free) for customized features, flight alerts, and more!